Time;durP1;ratioP1;P1;durP2;ratioP2;P2;SDS_P1;SDS_P2;PMS_P1;PMS_P2;Temp;Humidity;BMP_temperature;BMP_pressure;BME280_temperature;BME280_humidity;BME280_pressure;Samples;Min_cycle;Max_cycle;Signal;HPM_P1;HPM_P2
2021/03/09 00:00:37;;;;;;;17.70;10.43;;;;;;;-1.69;79.69;96415.69;4911584;29;20489;-75
2021/03/09 00:03:04;;;;;;;19.43;11.23;;;;;;;-1.82;80.41;96408.69;4911945;29;20754;-75
2021/03/09 00:05:29;;;;;;;22.70;11.33;;;;;;;-1.89;80.73;96413.31;4912818;29;20039;-76
2021/03/09 00:07:55;;;;;;;17.07;10.80;;;;;;;-1.89;81.25;96413.31;4908838;29;20471;-75
2021/03/09 00:10:21;;;;;;;19.80;10.63;;;;;;;-1.91;81.81;96410.00;4923527;29;20086;-75
2021/03/09 00:12:46;;;;;;;19.93;11.93;;;;;;;-1.87;81.53;96410.69;4928444;29;20409;-75
2021/03/09 00:15:12;;;;;;;18.13;11.13;;;;;;;-1.87;81.00;96411.50;4906694;29;20028;-75
2021/03/09 00:17:38;;;;;;;18.60;11.10;;;;;;;-1.80;80.90;96409.47;4921722;29;20035;-75
2021/03/09 00:20:04;;;;;;;21.30;11.97;;;;;;;-1.80;80.81;96412.03;4919915;29;20483;-75
2021/03/09 00:22:30;;;;;;;17.13;10.57;;;;;;;-1.83;80.49;96413.00;4917214;29;20035;-75
2021/03/09 00:24:56;;;;;;;20.03;11.63;;;;;;;-1.98;81.60;96408.63;4914057;29;21022;-75
2021/03/09 00:27:21;;;;;;;19.90;11.23;;;;;;;-1.99;81.51;96409.56;4908240;29;20039;-75
2021/03/09 00:29:47;;;;;;;21.47;11.57;;;;;;;-1.98;81.49;96417.22;4925922;29;20378;-75
2021/03/09 00:32:13;;;;;;;19.37;10.67;;;;;;;-2.02;82.07;96412.28;4915522;29;20043;-74
2021/03/09 00:34:38;;;;;;;18.80;11.07;;;;;;;-1.95;81.89;96411.06;4927816;29;20090;-75
2021/03/09 00:37:05;;;;;;;17.00;10.70;;;;;;;-1.96;81.75;96406.81;4901452;29;20091;-75
2021/03/09 00:39:31;;;;;;;18.33;11.00;;;;;;;-1.99;81.42;96407.81;4918656;29;20061;-76
2021/03/09 00:41:57;;;;;;;19.50;10.33;;;;;;;-2.00;81.71;96406.16;4908480;29;20754;-75
2021/03/09 00:44:23;;;;;;;20.20;12.13;;;;;;;-2.01;81.47;96395.91;4891846;29;20472;-75
2021/03/09 00:46:50;;;;;;;18.10;10.37;;;;;;;-1.97;81.32;96402.59;4905471;29;20452;-76
2021/03/09 00:49:16;;;;;;;17.23;11.13;;;;;;;-2.02;81.65;96399.41;4924386;29;20036;-75
2021/03/09 00:51:42;;;;;;;22.63;11.57;;;;;;;-2.13;81.84;96398.22;4921737;29;20466;-75
2021/03/09 00:54:07;;;;;;;19.40;11.37;;;;;;;-2.25;83.04;96395.41;4922072;29;20528;-75
2021/03/09 00:56:33;;;;;;;17.00;11.20;;;;;;;-2.25;83.08;96387.69;4926138;29;20530;-74
2021/03/09 00:58:59;;;;;;;20.17;11.53;;;;;;;-2.23;82.91;96383.28;4928755;29;20096;-75
2021/03/09 01:01:24;;;;;;;21.77;12.07;;;;;;;-2.26;83.26;96383.44;4909012;29;20028;-75
2021/03/09 01:03:50;;;;;;;20.50;12.10;;;;;;;-2.25;83.15;96385.09;4904433;29;20044;-75
2021/03/09 01:06:15;;;;;;;18.27;11.10;;;;;;;-2.25;82.86;96378.22;4917557;29;20035;-75
2021/03/09 01:08:41;;;;;;;17.70;11.03;;;;;;;-2.36;83.24;96375.34;4923069;29;20574;-75
2021/03/09 01:11:07;;;;;;;18.37;11.40;;;;;;;-2.31;83.70;96375.09;4912048;29;20048;-75
2021/03/09 01:13:32;;;;;;;18.37;11.30;;;;;;;-2.31;83.03;96375.97;4905190;29;20634;-75
2021/03/09 01:15:58;;;;;;;18.60;11.97;;;;;;;-2.31;83.34;96375.97;4898491;29;20080;-75
2021/03/09 01:18:24;;;;;;;25.00;15.17;;;;;;;-2.31;82.67;96364.81;4906667;29;20083;-75
2021/03/09 01:20:49;;;;;;;21.67;12.10;;;;;;;-2.38;83.25;96369.47;4926370;29;20115;-75
2021/03/09 01:23:16;;;;;;;19.37;10.63;;;;;;;-2.39;83.60;96371.19;4934010;29;20506;-74
2021/03/09 01:25:42;;;;;;;19.77;12.17;;;;;;;-2.49;84.02;96369.16;4910564;29;20413;-75
2021/03/09 01:28:08;;;;;;;19.33;12.17;;;;;;;-2.41;83.54;96369.59;4922626;29;20467;-75
2021/03/09 01:30:35;;;;;;;22.53;11.90;;;;;;;-2.48;83.76;96368.22;4911937;29;21210;-75
2021/03/09 01:33:00;;;;;;;22.20;13.17;;;;;;;-2.44;84.06;96370.59;4930869;29;20821;-75
2021/03/09 01:35:26;;;;;;;21.10;12.17;;;;;;;-2.47;84.15;96357.88;4929605;29;20471;-75
2021/03/09 01:37:52;;;;;;;20.23;11.80;;;;;;;-2.57;84.25;96360.97;4919840;29;20030;-75
2021/03/09 01:40:21;;;;;;;18.53;11.73;;;;;;;-2.64;84.72;96355.31;4912381;29;20494;-75
2021/03/09 01:42:46;;;;;;;20.77;12.07;;;;;;;-2.64;84.88;96356.13;4908442;29;20043;-74
2021/03/09 01:45:12;;;;;;;20.70;13.57;;;;;;;-2.61;84.25;96358.56;4912743;29;20460;-75
2021/03/09 01:47:43;;;;;;;19.43;11.83;;;;;;;-2.61;83.71;96355.97;4913726;29;20067;-75
2021/03/09 01:50:11;;;;;;;22.83;12.60;;;;;;;-2.56;83.69;96349.75;4925411;29;20518;-75
2021/03/09 01:52:39;;;;;;;23.87;12.50;;;;;;;-2.57;83.79;96338.63;4927539;29;20459;-75
2021/03/09 01:55:07;;;;;;;21.37;13.10;;;;;;;-2.61;83.67;96339.69;4923491;29;20464;-75
2021/03/09 01:57:33;;;;;;;18.67;11.73;;;;;;;-2.58;83.17;96344.69;4908124;29;20455;-75
2021/03/09 02:00:03;;;;;;;19.53;12.57;;;;;;;-2.62;82.65;96335.44;4895947;29;20487;-75
2021/03/09 02:02:38;;;;;;;21.50;12.57;;;;;;;-2.64;83.87;96345.00;4914487;29;20454;-75
2021/03/09 02:05:10;;;;;;;21.17;12.93;;;;;;;-2.70;84.35;96332.44;4910288;29;21266;-75
2021/03/09 02:07:35;;;;;;;21.50;12.00;;;;;;;-2.67;84.27;96342.56;4923569;29;20442;-74
2021/03/09 02:10:04;;;;;;;21.30;12.13;;;;;;;-2.69;83.79;96328.94;4910188;29;20455;-75
2021/03/09 02:12:48;;;;;;;17.27;11.07;;;;;;;-2.72;83.38;96327.34;4928410;29;20044;-75
2021/03/09 02:15:37;;;;;;;19.70;11.37;;;;;;;-2.75;83.05;96332.66;4917784;29;20448;-76
2021/03/09 02:18:11;;;;;;;19.63;11.57;;;;;;;-2.71;83.51;96325.63;4913882;29;20520;-75
2021/03/09 02:21:09;;;;;;;19.13;11.53;;;;;;;-2.68;83.00;96313.44;4931421;29;20545;-75
2021/03/09 02:23:53;;;;;;;21.27;12.40;;;;;;;-2.78;84.38;96313.94;4916356;29;21000;-75
2021/03/09 02:26:50;;;;;;;18.97;10.77;;;;;;;-2.77;83.60;96316.47;4916234;29;20429;-75
2021/03/09 02:29:41;;;;;;;17.07;11.47;;;;;;;-2.80;83.85;96310.63;4911581;29;20557;-75
2021/03/09 02:32:12;;;;;;;23.07;10.80;;;;;;;-2.72;83.17;96314.47;4952922;23;20504;-80
2021/03/09 02:34:45;;;;;;;20.23;11.73;;;;;;;-2.74;83.03;96310.34;4925011;29;20562;-80
2021/03/09 02:37:14;;;;;;;14.55;8.65;;;;;;;-2.77;83.31;96306.16;4934393;29;20486;-77
2021/03/09 02:39:45;;;;;;;17.30;11.23;;;;;;;-2.80;84.48;96297.75;4914451;29;20505;-77
2021/03/09 02:42:16;;;;;;;21.53;11.13;;;;;;;-2.83;84.53;96305.63;4891161;29;20472;-77
2021/03/09 02:44:44;;;;;;;20.20;11.93;;;;;;;-2.87;84.30;96299.81;4886579;29;20504;-77
2021/03/09 02:47:13;;;;;;;20.00;12.57;;;;;;;-2.87;84.30;96297.22;4909190;29;20828;-77
2021/03/09 02:49:41;;;;;;;19.63;12.40;;;;;;;-2.89;84.05;96297.28;4913448;29;20444;-77
2021/03/09 02:52:08;;;;;;;20.58;12.55;;;;;;;-2.88;83.50;96300.72;4903814;29;20533;-75
2021/03/09 02:54:36;;;;;;;18.83;11.90;;;;;;;-2.86;84.05;96292.00;4892511;29;20092;-77
2021/03/09 02:57:05;;;;;;;19.00;11.77;;;;;;;-2.85;83.93;96291.09;4910215;29;20818;-77
2021/03/09 02:59:32;;;;;;;19.73;12.32;;;;;;;-2.86;83.88;96293.75;4900756;29;20670;-76
2021/03/09 03:01:59;;;;;;;20.33;11.70;;;;;;;-2.84;82.99;96289.38;4915994;29;20048;-76
2021/03/09 03:04:25;;;;;;;19.40;11.07;;;;;;;-2.89;83.57;96291.31;4916329;29;20451;-77
2021/03/09 03:06:52;;;;;;;18.08;11.73;;;;;;;-2.88;83.27;96298.97;4910149;29;20514;-77
2021/03/09 03:09:20;;;;;;;20.73;11.93;;;;;;;-2.91;83.59;96288.00;4905494;29;20040;-76
2021/03/09 03:11:48;;;;;;;20.87;11.80;;;;;;;-2.90;82.91;96294.81;4897769;29;20465;-77
2021/03/09 03:14:16;;;;;;;19.80;12.47;;;;;;;-2.90;83.06;96293.06;4906515;29;20447;-78
2021/03/09 03:16:43;;;;;;;23.10;11.60;;;;;;;-2.95;83.30;96296.75;4889636;29;20529;-77
2021/03/09 03:19:10;;;;;;;18.00;11.10;;;;;;;-2.95;83.64;96291.63;4913713;29;20051;-78
2021/03/09 03:21:40;;;;;;;22.13;12.98;;;;;;;-2.93;83.93;96287.25;4895581;29;20503;-78
2021/03/09 03:24:08;;;;;;;17.50;11.87;;;;;;;-2.97;83.82;96298.59;4917971;29;20122;-78
2021/03/09 03:26:38;;;;;;;21.83;12.23;;;;;;;-3.03;83.88;96286.03;4898192;29;20464;-78
2021/03/09 03:29:06;;;;;;;21.67;12.10;;;;;;;-3.05;84.10;96285.25;4889029;29;20464;-78
2021/03/09 03:31:33;;;;;;;20.38;11.73;;;;;;;-3.05;84.68;96290.41;4900919;29;20036;-78
2021/03/09 03:33:58;;;;;;;19.93;11.93;;;;;;;-3.11;85.39;96292.38;4889719;29;20564;-78
2021/03/09 03:36:25;;;;;;;19.93;11.93;;;;;;;-3.10;84.23;96281.19;4891563;29;20463;-78
2021/03/09 03:38:51;;;;;;;18.70;12.13;;;;;;;-3.12;84.84;96283.00;4888436;29;20540;-78
2021/03/09 03:41:16;;;;;;;21.03;12.70;;;;;;;-3.18;84.74;96280.72;4894612;29;20111;-78
2021/03/09 03:43:42;;;;;;;20.67;11.80;;;;;;;-3.19;84.62;96279.03;4899622;29;20032;-78
2021/03/09 03:46:08;;;;;;;19.27;11.50;;;;;;;-3.12;84.46;96283.00;4886291;29;20062;-78
2021/03/09 03:48:35;;;;;;;20.17;12.23;;;;;;;-3.10;84.44;96288.88;4889789;29;20373;-78
2021/03/09 03:51:02;;;;;;;21.13;12.85;;;;;;;-3.16;84.24;96278.91;4885224;29;20038;-78
2021/03/09 03:53:34;;;;;;;21.75;13.00;;;;;;;-3.24;85.59;96275.88;4894407;29;20039;-78
2021/03/09 03:56:20;;;;;;;20.38;12.98;;;;;;;-3.30;86.16;96281.31;4885980;29;20035;-78
2021/03/09 03:58:54;;;;;;;25.93;14.53;;;;;;;-3.37;87.01;96282.50;4905109;29;20043;-78
2021/03/09 04:01:20;;;;;;;;;;;;;;;-3.37;86.62;96285.09;4880116;29;21282;-78
2021/03/09 04:03:51;;;;;;;22.23;12.23;;;;;;;-3.42;87.42;96287.03;4884511;29;19967;-78
2021/03/09 04:06:22;;;;;;;20.83;12.70;;;;;;;-3.43;87.44;96282.81;4896618;29;20067;-78
2021/03/09 04:08:48;;;;;;;24.98;13.82;;;;;;;-3.48;87.59;96277.06;4898794;29;20059;-77
2021/03/09 04:11:14;;;;;;;26.17;13.77;;;;;;;-3.49;87.68;96285.66;4898678;29;20533;-78
2021/03/09 04:13:42;;;;;;;23.05;14.02;;;;;;;-3.47;87.55;96273.56;4884408;29;20843;-78
2021/03/09 04:16:10;;;;;;;23.02;14.15;;;;;;;-3.47;87.32;96282.13;4880493;29;20029;-78
2021/03/09 04:18:37;;;;;;;23.98;14.02;;;;;;;-3.46;87.53;96280.38;4895338;29;20030;-78
2021/03/09 04:21:04;;;;;;;23.15;13.60;;;;;;;-3.43;87.10;96280.22;4898826;29;20482;-78
2021/03/09 04:23:31;;;;;;;57.78;30.90;;;;;;;-3.52;87.57;96283.22;4897644;29;20043;-78
2021/03/09 04:25:58;;;;;;;38.70;21.85;;;;;;;-3.51;87.43;96280.59;4898463;29;20455;-78
2021/03/09 04:28:25;;;;;;;38.38;21.92;;;;;;;-3.54;87.64;96278.16;4917800;29;20479;-78
2021/03/09 04:30:51;;;;;;;35.83;21.38;;;;;;;-3.54;87.87;96278.16;4899344;29;20525;-78
2021/03/09 04:33:17;;;;;;;31.33;19.33;;;;;;;-3.53;88.04;96272.13;4899189;29;20138;-78
2021/03/09 04:35:43;;;;;;;34.38;21.38;;;;;;;-3.51;87.69;96274.63;4877573;29;20104;-78
2021/03/09 04:38:09;;;;;;;24.37;15.80;;;;;;;-3.53;88.23;96274.69;4904809;29;20067;-78
2021/03/09 04:40:36;;;;;;;26.75;13.70;;;;;;;-3.47;88.09;96276.16;4904542;29;20498;-77
2021/03/09 04:43:03;;;;;;;26.38;15.50;;;;;;;-3.47;87.60;96276.16;4885421;29;20036;-78
2021/03/09 04:45:30;;;;;;;24.98;14.60;;;;;;;-3.54;87.71;96278.16;4882280;29;20035;-78
2021/03/09 04:47:59;;;;;;;24.58;14.23;;;;;;;-3.60;88.33;96283.59;4906839;29;20043;-78
2021/03/09 04:50:26;;;;;;;25.20;15.35;;;;;;;-3.68;88.58;96278.00;4890470;29;20250;-78
2021/03/09 04:52:52;;;;;;;25.77;13.90;;;;;;;-3.75;88.05;96281.75;4881376;29;20108;-77
2021/03/09 04:55:21;;;;;;;23.67;14.10;;;;;;;-3.81;88.30;96278.56;4909080;29;20248;-77
2021/03/09 04:57:47;;;;;;;23.65;14.48;;;;;;;-3.76;88.83;96273.19;4905721;29;20180;-77
2021/03/09 05:00:21;;;;;;;23.10;14.13;;;;;;;-3.70;88.34;96272.91;4908666;29;20123;-78
2021/03/09 05:02:49;;;;;;;25.38;14.52;;;;;;;-3.85;88.61;96273.63;4892912;29;20148;-78
2021/03/09 05:05:17;;;;;;;25.75;14.80;;;;;;;-3.89;88.98;96277.22;4904213;29;20496;-77
2021/03/09 05:07:42;;;;;;;23.20;13.93;;;;;;;-3.93;89.72;96278.28;4882130;29;20399;-78
2021/03/09 05:10:10;;;;;;;25.37;14.57;;;;;;;-3.95;89.52;96280.09;4917187;29;20042;-77
2021/03/09 05:12:39;;;;;;;24.92;15.60;;;;;;;-4.06;89.50;96281.41;4905099;29;20035;-78
2021/03/09 05:15:05;;;;;;;25.88;14.85;;;;;;;-3.95;89.33;96280.09;4887310;29;20047;-78
2021/03/09 05:17:31;;;;;;;26.30;16.27;;;;;;;-4.03;89.45;96280.44;4915274;29;20099;-77
2021/03/09 05:19:57;;;;;;;28.87;15.50;;;;;;;-4.12;89.67;96276.56;4923815;29;20032;-77
2021/03/09 05:22:23;;;;;;;29.37;16.00;;;;;;;-4.10;89.90;96279.03;4902751;29;20559;-78
2021/03/09 05:24:48;;;;;;;29.47;16.27;;;;;;;-4.13;90.60;96269.72;4898137;29;20035;-77
2021/03/09 05:27:14;;;;;;;25.73;14.57;;;;;;;-4.06;90.39;96276.28;4883336;29;20044;-77
2021/03/09 05:29:40;;;;;;;29.37;16.37;;;;;;;-4.21;90.59;96274.38;4890196;29;20039;-78
2021/03/09 05:32:06;;;;;;;30.42;16.83;;;;;;;-4.16;91.12;96274.19;4898397;29;20060;-78
2021/03/09 05:34:32;;;;;;;29.00;17.40;;;;;;;-4.09;90.83;96271.28;4900499;29;20035;-78
2021/03/09 05:36:58;;;;;;;33.10;18.37;;;;;;;-4.09;90.65;96280.69;4892120;29;20142;-78
2021/03/09 05:39:23;;;;;;;30.97;17.57;;;;;;;-3.99;90.58;96271.72;4891892;29;20036;-78
2021/03/09 05:41:49;;;;;;;33.17;17.13;;;;;;;-3.94;90.28;96272.31;4915920;29;20036;-77
2021/03/09 05:44:15;;;;;;;27.63;16.60;;;;;;;-3.98;90.64;96268.22;4907022;29;20641;-78
2021/03/09 05:46:41;;;;;;;27.95;16.45;;;;;;;-3.85;90.32;96271.91;4890127;29;20042;-78
2021/03/09 05:49:08;;;;;;;29.70;17.70;;;;;;;-3.69;90.18;96273.75;4915329;29;20056;-78
2021/03/09 05:51:34;;;;;;;30.40;16.08;;;;;;;-3.73;89.35;96273.06;4898092;29;20050;-78
2021/03/09 05:53:59;;;;;;;26.95;16.92;;;;;;;-3.75;89.30;96280.03;4911213;29;20041;-77
2021/03/09 05:56:25;;;;;;;27.27;14.90;;;;;;;-3.62;89.27;96275.97;4898610;29;20477;-78
2021/03/09 05:58:54;;;;;;;26.70;16.07;;;;;;;-3.52;88.66;96276.38;4921977;29;20035;-78
2021/03/09 06:01:20;;;;;;;28.75;15.35;;;;;;;-3.53;88.01;96279.00;4877870;29;20506;-78
2021/03/09 06:03:46;;;;;;;28.87;15.23;;;;;;;-3.51;88.02;96272.88;4898348;29;20043;-78
2021/03/09 06:06:12;;;;;;;26.08;13.93;;;;;;;-3.50;88.02;96279.69;4906033;29;20033;-79
2021/03/09 06:08:39;;;;;;;25.70;14.27;;;;;;;-3.48;87.84;96272.75;4893985;29;20040;-78
2021/03/09 06:11:14;;;;;;;27.17;15.30;;;;;;;-3.37;88.16;96272.22;4892640;29;20032;-78
2021/03/09 06:13:40;;;;;;;24.77;14.18;;;;;;;-3.27;87.50;96278.59;4916793;29;20040;-78
2021/03/09 06:16:06;;;;;;;29.70;15.20;;;;;;;-3.16;87.23;96278.91;4907508;29;20055;-78
2021/03/09 06:18:32;;;;;;;25.30;14.90;;;;;;;-3.01;86.61;96281.66;4887458;29;20084;-77
2021/03/09 06:21:08;;;;;;;25.53;14.80;;;;;;;-2.98;85.71;96284.06;4896536;29;21329;-77
2021/03/09 06:23:34;;;;;;;21.80;13.02;;;;;;;-2.92;86.02;96286.31;4897163;29;20044;-77
2021/03/09 06:26:00;;;;;;;23.80;13.83;;;;;;;-2.83;85.50;96280.72;4900588;29;20024;-77
2021/03/09 06:28:31;;;;;;;33.30;17.40;;;;;;;-2.72;85.33;96288.72;4903014;29;20040;-77
2021/03/09 06:31:01;;;;;;;26.83;15.02;;;;;;;-2.79;84.81;96292.53;4895390;29;20056;-77
2021/03/09 06:33:31;;;;;;;23.63;13.73;;;;;;;-2.80;85.29;96287.47;4883904;29;20066;-77
2021/03/09 06:36:00;;;;;;;21.83;14.10;;;;;;;-2.65;85.21;96282.41;4894287;29;21061;-77
2021/03/09 06:38:30;;;;;;;25.30;15.07;;;;;;;-2.69;84.60;96286.00;4908111;29;20160;-77
2021/03/09 06:41:16;;;;;;;21.37;13.37;;;;;;;-2.53;85.10;96287.81;4902087;29;20518;-77
2021/03/09 06:43:45;;;;;;;23.90;14.13;;;;;;;-2.41;84.47;96282.88;4909844;29;20448;-78
2021/03/09 06:46:15;;;;;;;21.35;12.80;;;;;;;-2.44;84.40;96292.50;4896625;29;20842;-77
2021/03/09 06:48:41;;;;;;;25.13;15.00;;;;;;;-2.49;84.67;96291.91;4877170;29;20532;-77
2021/03/09 06:51:23;;;;;;;24.53;14.63;;;;;;;-2.47;84.33;96296.06;4901715;29;20472;-77
2021/03/09 06:54:10;;;;;;;22.77;13.37;;;;;;;-2.29;83.45;96294.28;4906359;29;20495;-77
2021/03/09 06:56:42;;;;;;;23.00;12.57;;;;;;;-2.25;83.31;96289.78;4905765;29;20476;-77
2021/03/09 06:59:18;;;;;;;23.48;13.85;;;;;;;-2.25;83.86;96287.22;4879967;29;20499;-77
2021/03/09 07:02:05;;;;;;;23.03;13.73;;;;;;;-2.27;83.79;96295.03;4902198;29;20062;-77
2021/03/09 07:04:31;;;;;;;22.77;14.00;;;;;;;-2.05;83.76;96297.31;4911514;29;20552;-77
2021/03/09 07:06:57;;;;;;;22.47;14.43;;;;;;;-2.21;83.25;96301.63;4878058;29;21485;-77
2021/03/09 07:09:23;;;;;;;23.47;13.83;;;;;;;-2.11;83.03;96302.81;4898624;29;20467;-77
2021/03/09 07:11:49;;;;;;;25.17;14.40;;;;;;;-2.01;83.11;96305.72;4906841;29;20845;-76
2021/03/09 07:14:16;;;;;;;23.93;14.83;;;;;;;-2.28;83.75;96303.69;4908414;29;20092;-78
2021/03/09 07:16:48;;;;;;;21.63;13.53;;;;;;;-2.00;83.24;96300.50;4906942;29;21633;-78
2021/03/09 07:19:22;;;;;;;25.77;14.73;;;;;;;-1.82;81.89;96303.81;4876359;29;21018;-76
2021/03/09 07:21:49;;;;;;;25.97;15.03;;;;;;;-1.75;81.54;96302.59;4893859;29;20124;-77
2021/03/09 07:24:20;;;;;;;22.13;13.70;;;;;;;-1.57;81.59;96305.09;4897061;29;20455;-77
2021/03/09 07:26:48;;;;;;;22.17;13.70;;;;;;;-1.54;81.54;96299.75;4887307;29;20514;-77
2021/03/09 07:29:16;;;;;;;25.17;14.00;;;;;;;-1.31;80.83;96301.94;4900796;29;21009;-77
2021/03/09 07:31:47;;;;;;;21.20;12.90;;;;;;;-1.17;80.91;96308.03;4918257;29;20471;-77
2021/03/09 07:34:14;;;;;;;23.10;14.63;;;;;;;-1.26;79.82;96310.22;4880180;29;20544;-77
2021/03/09 07:36:40;;;;;;;27.63;14.17;;;;;;;-0.94;79.12;96302.41;4878813;29;20467;-77
2021/03/09 07:39:06;;;;;;;24.80;15.23;;;;;;;-0.73;77.52;96305.53;4898188;29;20440;-78
2021/03/09 07:41:34;;;;;;;23.00;13.87;;;;;;;-0.84;79.15;96295.84;4892562;29;21048;-78
2021/03/09 07:44:00;;;;;;;24.93;15.10;;;;;;;-0.45;77.85;96291.84;4896347;29;20830;-77
2021/03/09 07:46:27;;;;;;;26.87;16.07;;;;;;;-0.55;78.67;96295.88;4887846;29;20440;-77
2021/03/09 07:48:54;;;;;;;27.87;15.80;;;;;;;-0.64;78.56;96291.25;4873673;29;20063;-77
2021/03/09 07:51:21;;;;;;;27.30;15.83;;;;;;;-0.53;77.69;96292.31;4891192;29;20472;-77
2021/03/09 07:54:10;;;;;;;28.60;15.23;;;;;;;-0.57;78.30;96293.41;4874287;29;21005;-78
2021/03/09 07:56:36;;;;;;;28.60;16.57;;;;;;;-0.09;77.26;96294.00;4905368;29;20460;-78
2021/03/09 07:59:06;;;;;;;29.67;15.73;;;;;;;-0.12;76.39;96294.16;4878827;29;20453;-78
2021/03/09 08:01:48;;;;;;;29.23;15.20;;;;;;;-0.42;77.95;96296.84;4911660;29;20660;-77
2021/03/09 08:04:15;;;;;;;29.13;15.43;;;;;;;-0.33;78.10;96293.72;4873385;29;20468;-78
2021/03/09 08:06:45;;;;;;;28.90;16.13;;;;;;;0.23;75.30;96289.47;4891334;29;20479;-78
2021/03/09 08:09:33;;;;;;;26.50;15.97;;;;;;;0.29;75.32;96293.41;4908342;29;20460;-77
2021/03/09 08:11:59;;;;;;;25.97;15.93;;;;;;;0.53;74.64;96300.56;4887040;29;20479;-78
2021/03/09 08:14:26;;;;;;;27.03;16.63;;;;;;;0.36;74.70;96294.66;4906436;29;20443;-78
2021/03/09 08:16:52;;;;;;;28.53;16.23;;;;;;;0.45;75.29;96294.09;4890179;29;20043;-78
2021/03/09 08:19:23;;;;;;;29.93;17.27;;;;;;;0.50;74.49;96288.63;4879244;29;20475;-78
2021/03/09 08:21:53;;;;;;;34.27;15.83;;;;;;;0.50;75.86;96288.63;4914120;29;21264;-78
2021/03/09 08:24:45;;;;;;;25.03;14.27;;;;;;;0.83;74.60;96288.25;4877303;29;20603;-79
2021/03/09 08:27:30;;;;;;;22.43;14.47;;;;;;;1.08;74.17;96292.69;4880379;29;20476;-78
2021/03/09 08:30:17;;;;;;;25.20;14.83;;;;;;;1.16;72.91;96289.59;4892972;29;20548;-78
2021/03/09 08:32:42;;;;;;;26.60;15.00;;;;;;;1.10;74.98;96284.81;4891409;29;20468;-78
2021/03/09 08:35:11;;;;;;;29.57;16.90;;;;;;;1.06;73.37;96286.78;4895851;29;20451;-78
2021/03/09 08:37:38;;;;;;;28.60;16.30;;;;;;;1.37;73.00;96292.53;4891149;29;20074;-78
2021/03/09 08:40:09;;;;;;;26.43;15.43;;;;;;;1.70;71.29;96283.44;4882118;29;20480;-81
2021/03/09 08:43:03;;;;;;;28.70;15.87;;;;;;;1.77;71.56;96285.53;4869973;29;20487;-78
2021/03/09 08:45:37;;;;;;;21.25;13.15;;;;;;;1.61;73.47;96288.34;4895789;29;20504;-78
2021/03/09 08:48:04;;;;;;;22.20;14.00;;;;;;;1.78;71.96;96286.38;4891949;29;20046;-78
2021/03/09 08:50:44;;;;;;;26.70;15.80;;;;;;;2.09;70.02;96287.69;4892183;29;20463;-78
2021/03/09 08:53:32;;;;;;;30.87;16.87;;;;;;;2.00;71.18;96286.53;4904926;29;20468;-79
2021/03/09 08:56:03;;;;;;;24.40;14.60;;;;;;;1.55;71.35;96280.16;4898233;29;20441;-76
2021/03/09 08:58:29;;;;;;;26.07;15.57;;;;;;;1.75;71.83;96286.56;4891363;29;20930;-79
2021/03/09 09:00:56;;;;;;;24.07;15.00;;;;;;;1.82;72.77;96293.00;4907756;29;20484;-79
2021/03/09 09:03:40;;;;;;;24.77;14.60;;;;;;;2.12;72.28;96290.06;4915231;29;21014;-79
2021/03/09 09:06:07;;;;;;;25.77;14.70;;;;;;;2.33;70.62;96283.38;4908270;29;20798;-78
2021/03/09 09:08:33;;;;;;;24.67;14.13;;;;;;;2.21;70.77;96278.22;4890155;29;20028;-78
2021/03/09 09:11:00;;;;;;;22.57;14.03;;;;;;;2.44;71.38;96280.03;4874592;29;20550;-78
2021/03/09 09:13:37;;;;;;;22.60;14.43;;;;;;;2.15;73.36;96282.09;4892062;29;20551;-78
2021/03/09 09:16:17;;;;;;;24.83;13.73;;;;;;;2.22;73.04;96279.91;4875257;29;21020;-78
2021/03/09 09:18:42;;;;;;;24.67;15.27;;;;;;;2.27;72.36;96278.63;4912048;29;20467;-78
2021/03/09 09:21:08;;;;;;;21.87;14.63;;;;;;;2.38;72.02;96279.63;4894130;29;20483;-78
2021/03/09 09:23:36;;;;;;;25.37;15.37;;;;;;;1.99;73.38;96284.91;4898674;29;20033;-78
2021/03/09 09:26:02;;;;;;;24.23;15.63;;;;;;;2.26;72.63;96276.16;4878630;29;20065;-78
2021/03/09 09:28:36;;;;;;;24.77;17.13;;;;;;;2.21;71.50;96279.03;4917017;29;21145;-78
2021/03/09 09:31:12;;;;;;;;;;;;;;;2.02;71.81;96276.91;4879282;29;20919;-79
2021/03/09 09:33:39;;;;;;;23.00;14.60;;;;;;;2.29;71.85;96281.94;4893128;29;19915;-77
2021/03/09 09:36:05;;;;;;;26.93;17.00;;;;;;;2.49;68.86;96283.16;4896986;29;20973;-78
2021/03/09 09:38:31;;;;;;;25.23;15.70;;;;;;;2.30;70.23;96278.41;4892484;29;20060;-76
2021/03/09 09:40:59;;;;;;;22.67;14.07;;;;;;;2.71;69.30;96279.00;4880422;29;20036;-78
2021/03/09 09:43:33;;;;;;;22.70;13.73;;;;;;;3.18;67.74;96275.56;4917728;29;20577;-78
2021/03/09 09:45:59;;;;;;;20.40;13.70;;;;;;;2.79;67.79;96274.13;4893497;29;20536;-78
2021/03/09 09:48:35;;;;;;;22.43;13.27;;;;;;;3.09;67.15;96262.44;4889946;29;20452;-78
2021/03/09 09:51:03;;;;;;;23.27;13.53;;;;;;;3.10;67.02;96266.69;4882863;29;20037;-77
2021/03/09 09:53:30;;;;;;;35.77;19.57;;;;;;;3.27;67.16;96268.88;4882536;29;20468;-78
2021/03/09 09:55:56;;;;;;;20.10;12.07;;;;;;;3.05;67.44;96270.47;4899044;29;20502;-78
2021/03/09 09:58:22;;;;;;;21.07;13.80;;;;;;;3.37;67.06;96271.63;4910445;29;20489;-78
2021/03/09 10:00:55;;;;;;;24.23;14.07;;;;;;;3.60;66.03;96275.09;4881797;29;20502;-78
2021/03/09 10:03:21;;;;;;;20.20;13.40;;;;;;;4.11;65.20;96274.66;4899558;29;20476;-77
2021/03/09 10:05:47;;;;;;;20.13;12.77;;;;;;;4.06;63.93;96268.97;4916081;29;20496;-78
2021/03/09 10:08:32;;;;;;;21.20;12.53;;;;;;;3.90;65.03;96270.16;4895679;29;20155;-78
2021/03/09 10:11:00;;;;;;;21.93;12.73;;;;;;;3.90;64.54;96269.34;4892750;29;20021;-78
2021/03/09 10:13:25;;;;;;;22.27;13.23;;;;;;;4.21;64.03;96265.22;4890149;29;20493;-78
2021/03/09 10:15:51;;;;;;;19.93;12.77;;;;;;;4.26;63.84;96268.28;4888715;29;20447;-77
2021/03/09 10:18:29;;;;;;;23.50;13.80;;;;;;;4.55;64.26;96262.56;4886212;29;20696;-77
2021/03/09 10:21:07;;;;;;;17.60;12.10;;;;;;;4.12;63.81;96265.91;4898434;29;20514;-78
2021/03/09 10:23:53;;;;;;;21.20;13.57;;;;;;;4.35;62.68;96259.75;4891574;29;20460;-78
2021/03/09 10:26:38;;;;;;;19.00;11.97;;;;;;;4.85;61.30;96261.88;4879098;29;21012;-78
2021/03/09 10:29:16;;;;;;;22.23;12.87;;;;;;;4.41;62.49;96259.25;4921948;29;20573;-77
2021/03/09 10:31:48;;;;;;;25.93;13.93;;;;;;;5.11;60.16;96259.78;4899317;29;20476;-78
2021/03/09 10:34:16;;;;;;;20.73;12.20;;;;;;;5.41;58.95;96257.28;4896917;29;20484;-76
2021/03/09 10:37:00;;;;;;;17.10;10.70;;;;;;;5.35;58.74;96260.38;4893597;29;20478;-77
2021/03/09 10:39:29;;;;;;;18.53;11.23;;;;;;;5.42;57.89;96258.91;4902592;29;20044;-78
2021/03/09 10:41:55;;;;;;;19.73;12.63;;;;;;;5.94;56.94;96258.19;4907052;29;20494;-78
2021/03/09 10:44:33;;;;;;;21.47;13.23;;;;;;;5.77;56.71;96257.78;4900369;29;20033;-78
2021/03/09 10:47:00;;;;;;;15.20;10.27;;;;;;;5.57;57.40;96258.63;4915510;29;20123;-76
2021/03/09 10:49:27;;;;;;;17.13;10.93;;;;;;;6.08;55.89;96250.00;4879319;29;20032;-78
2021/03/09 10:52:01;;;;;;;15.47;10.13;;;;;;;6.12;55.02;96256.59;4883371;29;20031;-78
2021/03/09 10:54:27;;;;;;;16.73;9.93;;;;;;;6.36;53.29;96251.88;4900835;29;20047;-80
2021/03/09 10:56:53;;;;;;;17.53;12.40;;;;;;;5.96;54.07;96253.63;4883794;29;20016;-79
2021/03/09 10:59:19;;;;;;;14.57;9.30;;;;;;;5.85;52.75;96252.72;4876533;29;20756;-78
2021/03/09 11:01:45;;;;;;;13.10;8.17;;;;;;;5.56;53.37;96249.13;4897211;29;20052;-79
2021/03/09 11:04:10;;;;;;;11.90;7.73;;;;;;;5.83;53.25;96256.41;4899247;29;20044;-78
2021/03/09 11:06:36;;;;;;;13.67;8.40;;;;;;;6.38;52.38;96247.34;4882904;29;20039;-79
2021/03/09 11:09:02;;;;;;;14.90;8.83;;;;;;;6.29;52.53;96248.13;4910435;29;20072;-80
2021/03/09 11:11:28;;;;;;;13.20;8.07;;;;;;;5.94;53.67;96245.13;4890189;29;20111;-79
2021/03/09 11:13:54;;;;;;;13.90;8.77;;;;;;;6.30;53.30;96244.56;4888387;29;20481;-78
2021/03/09 11:16:19;;;;;;;12.80;7.10;;;;;;;5.79;51.59;96255.03;4880367;29;20040;-78
2021/03/09 11:18:45;;;;;;;13.07;5.90;;;;;;;6.43;48.56;96243.50;4891663;29;20039;-82
2021/03/09 11:21:11;;;;;;;13.43;7.47;;;;;;;6.67;50.58;96248.38;4916267;29;20016;-79
2021/03/09 11:23:39;;;;;;;12.43;7.80;;;;;;;6.65;49.71;96243.28;4919392;29;20072;-79
2021/03/09 11:26:06;;;;;;;11.80;7.73;;;;;;;6.28;50.10;96246.50;4897619;29;20035;-79
2021/03/09 11:28:35;;;;;;;13.40;7.77;;;;;;;6.75;48.75;96241.53;4891491;29;20044;-79
2021/03/09 11:31:01;;;;;;;13.40;8.37;;;;;;;6.75;50.01;96243.31;4896615;29;20394;-79